Time;durP1;ratioP1;P1;durP2;ratioP2;P2;SDS_P1;SDS_P2;PMS_P1;PMS_P2;Temp;Humidity;BMP_temperature;BMP_pressure;BME280_temperature;BME280_humidity;BME280_pressure;Samples;Min_cycle;Max_cycle;Signal;HPM_P1;HPM_P2
2021/10/21 00:00:09;;;;;;;8.07;3.55;;;16.40;99.90;;;14.55;100.00;98107.50;5051734;28;20491;-83
2021/10/21 00:02:39;;;;;;;7.43;3.88;;;16.40;99.90;;;14.57;100.00;98088.91;5052129;28;20509;-83
2021/10/21 00:05:08;;;;;;;7.38;4.10;;;16.40;99.90;;;14.55;100.00;98075.47;5051674;28;20122;-83
2021/10/21 00:07:36;;;;;;;7.75;3.92;;;16.40;99.90;;;14.55;100.00;98060.97;5051390;28;20071;-83
2021/10/21 00:10:04;;;;;;;7.30;3.40;;;16.40;99.90;;;14.57;100.00;98053.34;5051270;28;20056;-83
2021/10/21 00:12:33;;;;;;;7.72;3.92;;;16.40;99.90;;;14.63;100.00;98046.75;5051547;28;20044;-83
2021/10/21 00:15:01;;;;;;;9.52;3.70;;;16.30;99.90;;;14.66;100.00;98043.50;5051303;28;20074;-83
2021/10/21 00:17:29;;;;;;;5.82;3.30;;;16.40;99.90;;;14.71;100.00;98054.44;5051217;28;20065;-83
2021/10/21 00:19:58;;;;;;;9.32;3.90;;;16.40;99.90;;;14.77;100.00;98041.56;5051544;28;20131;-83
2021/10/21 00:22:25;;;;;;;9.52;4.07;;;16.40;99.90;;;14.75;100.00;98063.75;5051418;28;20056;-83
2021/10/21 00:24:53;;;;;;;9.98;3.70;;;16.40;99.90;;;14.73;100.00;98048.69;5051495;28;20128;-84
2021/10/21 00:27:20;;;;;;;10.48;4.22;;;16.40;99.90;;;14.75;100.00;98036.34;5051411;28;20124;-84
2021/10/21 00:29:49;;;;;;;9.98;4.07;;;16.40;99.90;;;14.74;100.00;98051.16;5049923;28;20432;-84
2021/10/21 00:32:16;;;;;;;9.00;4.10;;;16.40;99.90;;;14.69;100.00;98037.47;5051366;28;20478;-83
2021/10/21 00:34:43;;;;;;;9.02;3.95;;;16.40;99.90;;;14.68;100.00;98024.03;5051415;28;20757;-83
2021/10/21 00:37:11;;;;;;;16.35;4.63;;;16.40;99.90;;;14.66;100.00;98005.16;5051052;28;20493;-83
2021/10/21 00:39:38;;;;;;;12.57;4.13;;;16.50;99.90;;;14.62;100.00;98001.31;5050951;28;20124;-83
2021/10/21 00:42:05;;;;;;;11.30;4.03;;;16.50;99.90;;;14.62;100.00;97991.22;5051150;28;20748;-83
2021/10/21 00:44:33;;;;;;;8.85;4.40;;;16.40;99.90;;;14.64;100.00;97997.22;5050958;28;20040;-83
2021/10/21 00:47:01;;;;;;;8.30;3.60;;;16.40;99.90;;;14.65;100.00;97987.09;5050975;28;20116;-83
2021/10/21 00:49:29;;;;;;;9.13;3.55;;;16.40;99.90;;;14.61;100.00;97983.25;5050461;28;20579;-84
2021/10/21 00:51:57;;;;;;;11.27;4.32;;;16.40;99.90;;;14.59;100.00;97989.00;5050476;28;20162;-84
2021/10/21 00:54:25;;;;;;;9.48;3.72;;;16.40;99.90;;;14.57;100.00;97969.28;5050273;28;20068;-83
2021/10/21 00:56:55;;;;;;;7.45;4.10;;;16.40;99.90;;;14.57;100.00;97960.28;5050939;28;20045;-83
2021/10/21 00:59:22;;;;;;;12.27;4.45;;;16.40;99.90;;;14.56;100.00;97961.31;5050504;28;20139;-84
2021/10/21 01:01:49;;;;;;;8.77;4.05;;;16.40;99.90;;;14.54;100.00;97925.19;5050857;28;20057;-84
2021/10/21 01:04:18;;;;;;;8.23;3.75;;;16.40;99.90;;;14.48;100.00;97925.19;5050618;28;20043;-83
2021/10/21 01:06:45;;;;;;;8.93;3.60;;;16.40;99.90;;;14.48;100.00;97911.50;5050738;28;20124;-83
2021/10/21 01:09:13;;;;;;;7.53;3.70;;;16.30;99.90;;;14.47;100.00;97898.13;5050490;28;20215;-84
2021/10/21 01:11:42;;;;;;;7.40;3.63;;;16.30;99.90;;;14.39;100.00;97871.28;5050143;28;20116;-83
2021/10/21 01:14:09;;;;;;;6.53;3.05;;;16.30;99.90;;;14.35;100.00;97872.94;5049317;28;20140;-84
2021/10/21 01:16:39;;;;;;;7.78;2.70;;;16.20;99.90;;;14.33;100.00;97869.66;5050456;28;20051;-83
2021/10/21 01:19:18;;;;;;;5.88;2.80;;;16.20;99.90;;;14.35;100.00;97871.00;5046967;28;20099;-84
2021/10/21 01:21:48;;;;;;;8.05;2.78;;;16.10;99.90;;;14.36;100.00;97869.94;5048975;28;20481;-83
2021/10/21 01:24:17;;;;;;;5.95;2.50;;;16.10;99.90;;;14.38;100.00;97888.81;5050277;28;20041;-83
2021/10/21 01:26:46;;;;;;;6.47;2.70;;;16.10;99.90;;;14.36;100.00;97880.06;5050348;28;20076;-84
2021/10/21 01:29:14;;;;;;;4.22;2.30;;;16.10;99.90;;;14.34;100.00;97874.84;5049894;28;20045;-84
2021/10/21 01:31:42;;;;;;;6.97;2.78;;;16.10;99.90;;;14.30;100.00;97865.56;5050114;28;20144;-84
2021/10/21 01:34:11;;;;;;;8.73;3.00;;;16.10;99.90;;;14.24;100.00;97866.63;5065450;28;20144;-83
2021/10/21 01:36:40;;;;;;;7.15;2.20;;;16.10;99.90;;;14.14;100.00;97880.31;5050151;28;20045;-83
2021/10/21 01:39:12;;;;;;;7.03;2.33;;;16.10;99.90;;;14.03;100.00;97876.75;5049934;28;20079;-83
2021/10/21 01:41:39;;;;;;;5.75;2.13;;;16.00;99.90;;;13.93;100.00;97877.56;5049948;28;20120;-84
2021/10/21 01:44:07;;;;;;;5.93;1.90;;;16.00;99.90;;;13.86;100.00;97869.63;5050095;28;20053;-84
2021/10/21 01:46:34;;;;;;;4.22;1.67;;;15.90;99.90;;;13.84;100.00;97862.78;5050046;28;20128;-83
2021/10/21 01:49:02;;;;;;;4.95;2.00;;;15.80;99.90;;;13.79;100.00;97871.81;5049704;28;20107;-84
2021/10/21 01:51:29;;;;;;;5.35;1.60;;;15.70;99.90;;;13.78;100.00;97883.00;5049846;28;20156;-83
2021/10/21 01:53:56;;;;;;;6.32;1.70;;;15.70;99.90;;;13.71;100.00;97886.00;5049761;28;20574;-84
2021/10/21 01:56:25;;;;;;;3.92;1.63;;;15.60;99.90;;;13.65;100.00;97871.53;5049774;28;20131;-84
2021/10/21 01:58:52;;;;;;;6.28;1.50;;;15.60;99.90;;;13.60;100.00;97876.97;5049424;28;20076;-83
2021/10/21 02:01:19;;;;;;;4.53;1.60;;;15.50;99.90;;;13.60;100.00;97887.88;5049531;28;20135;-83
2021/10/21 02:03:46;;;;;;;15.75;1.63;;;15.50;99.90;;;13.52;100.00;97915.75;5049310;28;20553;-84
2021/10/21 02:06:14;;;;;;;3.92;1.40;;;15.50;99.90;;;13.42;100.00;97874.72;5049436;28;20055;-83
2021/10/21 02:08:41;;;;;;;8.63;1.90;;;15.40;99.90;;;13.33;100.00;97873.59;5048997;28;20049;-83
2021/10/21 02:11:09;;;;;;;4.43;1.35;;;15.30;99.90;;;13.26;100.00;97869.16;5049340;28;20154;-83
2021/10/21 02:13:37;;;;;;;4.97;1.40;;;15.30;99.90;;;13.18;100.00;97860.69;5049380;28;20048;-83
2021/10/21 02:16:05;;;;;;;3.95;1.48;;;15.30;99.90;;;13.13;100.00;97864.19;5049570;28;20148;-83
2021/10/21 02:18:32;;;;;;;7.45;1.23;;;15.20;99.90;;;13.04;100.00;97861.19;5049057;28;20092;-83
2021/10/21 02:20:59;;;;;;;6.70;1.27;;;15.10;99.90;;;13.04;100.00;97863.06;5064630;28;20517;-83
2021/10/21 02:23:27;;;;;;;7.25;1.73;;;15.10;99.90;;;12.89;100.00;97852.91;5047785;28;20077;-83
2021/10/21 02:25:54;;;;;;;7.35;1.40;;;15.10;99.90;;;12.82;100.00;97872.25;5064519;28;20521;-83
2021/10/21 02:28:21;;;;;;;4.55;1.35;;;15.00;99.90;;;12.82;100.00;97858.59;5048782;28;20544;-83
2021/10/21 02:30:50;;;;;;;5.00;1.23;;;14.90;99.90;;;12.82;100.00;97879.63;5049197;28;20048;-83
2021/10/21 02:33:17;;;;;;;5.15;0.98;;;14.80;99.90;;;12.75;100.00;97876.28;5049034;28;20073;-83
2021/10/21 02:35:45;;;;;;;6.38;1.27;;;14.70;99.90;;;12.68;100.00;97873.81;5064032;28;20048;-83
2021/10/21 02:38:13;;;;;;;8.52;1.70;;;14.70;99.90;;;12.62;100.00;97880.31;5048623;28;20055;-83
2021/10/21 02:40:40;;;;;;;7.72;1.30;;;14.70;99.90;;;12.49;100.00;97879.69;5048847;28;20135;-83
2021/10/21 02:43:08;;;;;;;9.25;1.73;;;14.60;99.90;;;12.44;100.00;97879.63;5048790;28;20049;-83
2021/10/21 02:45:35;;;;;;;5.25;1.20;;;14.60;99.90;;;12.43;100.00;97864.38;5048778;28;20066;-83
2021/10/21 02:48:04;;;;;;;6.50;1.40;;;14.60;99.90;;;12.41;100.00;97874.69;5048562;28;20072;-83
2021/10/21 02:50:31;;;;;;;8.55;1.25;;;14.50;99.90;;;12.38;100.00;97869.78;5048707;28;20060;-83
2021/10/21 02:52:58;;;;;;;8.93;1.40;;;14.50;99.90;;;12.38;100.00;97864.31;5048734;28;20095;-83
2021/10/21 02:55:26;;;;;;;8.50;1.60;;;14.50;99.90;;;12.39;100.00;97860.50;5048770;28;20124;-83
2021/10/21 02:57:53;;;;;;;5.60;1.40;;;14.40;99.90;;;12.34;100.00;97855.03;5048484;28;20128;-83
2021/10/21 03:00:20;;;;;;;9.85;1.20;;;14.40;99.90;;;12.32;100.00;97865.38;5048708;28;20052;-83
2021/10/21 03:02:48;;;;;;;6.22;1.23;;;14.40;99.90;;;12.30;100.00;97868.38;5046796;28;20115;-83
2021/10/21 03:05:16;;;;;;;8.20;1.30;;;14.30;99.90;;;12.28;100.00;97865.06;5048602;28;20398;-83
2021/10/21 03:07:44;;;;;;;12.40;1.50;;;14.30;99.80;;;12.33;100.00;97867.00;5046899;28;20048;-83
2021/10/21 03:10:11;;;;;;;9.30;1.23;;;14.30;99.90;;;12.25;100.00;97848.41;5048400;28;20141;-83
2021/10/21 03:12:38;;;;;;;6.30;1.08;;;14.30;99.90;;;12.24;100.00;97868.56;5048550;28;20131;-83
2021/10/21 03:15:07;;;;;;;6.10;1.15;;;14.20;99.40;;;12.25;100.00;97859.31;5048035;28;20180;-83
2021/10/21 03:17:34;;;;;;;8.80;1.15;;;14.10;99.20;;;12.26;100.00;97858.22;5046331;28;20081;-83
2021/10/21 03:20:01;;;;;;;6.20;0.85;;;14.10;99.90;;;12.27;100.00;97873.50;5048223;28;20048;-83
2021/10/21 03:22:30;;;;;;;7.32;1.65;;;14.10;99.80;;;12.30;100.00;97856.63;5048445;28;20094;-83
2021/10/21 03:24:57;;;;;;;10.10;1.00;;;14.10;99.50;;;12.32;100.00;97858.00;5048322;28;20118;-83
2021/10/21 03:27:24;;;;;;;9.32;1.67;;;14.10;99.70;;;12.29;100.00;97865.88;5045034;28;20065;-83
2021/10/21 03:29:51;;;;;;;4.40;1.13;;;14.00;99.20;;;12.28;100.00;97856.91;5048189;28;20045;-83
2021/10/21 03:32:19;;;;;;;6.75;1.38;;;14.10;99.90;;;12.32;100.00;97860.75;5048388;28;20137;-83
2021/10/21 03:34:46;;;;;;;7.63;1.10;;;14.10;99.90;;;12.31;100.00;97856.34;5048435;28;20041;-83
2021/10/21 03:37:13;;;;;;;5.63;1.08;;;14.10;99.30;;;12.27;100.00;97855.25;5048375;28;20120;-83
2021/10/21 03:39:42;;;;;;;6.68;1.10;;;14.10;98.40;;;12.24;100.00;97841.31;5063417;28;20091;-83
2021/10/21 03:42:09;;;;;;;8.48;1.00;;;14.10;98.80;;;12.19;100.00;97838.56;5048148;28;20147;-83
2021/10/21 03:44:37;;;;;;;10.40;1.42;;;14.10;99.20;;;12.15;100.00;97845.59;5048186;28;20124;-83
2021/10/21 03:47:05;;;;;;;8.93;1.40;;;14.10;99.60;;;12.17;100.00;97840.72;5048156;28;20131;-83
2021/10/21 03:49:32;;;;;;;5.28;1.23;;;14.10;98.90;;;12.21;100.00;97830.94;5047743;28;20045;-83
2021/10/21 03:51:59;;;;;;;7.63;1.13;;;14.10;98.50;;;12.23;100.00;97845.13;5048063;28;20559;-83
2021/10/21 03:54:27;;;;;;;6.50;1.10;;;14.00;99.00;;;12.26;100.00;97822.78;5048194;28;20143;-83
2021/10/21 03:56:55;;;;;;;8.30;1.30;;;14.00;98.40;;;12.28;100.00;97837.81;5046581;28;20041;-83
2021/10/21 03:59:22;;;;;;;6.05;1.10;;;14.00;97.90;;;12.31;100.00;97826.34;5047747;28;20123;-83
2021/10/21 04:01:53;;;;;;;7.72;0.93;;;14.00;97.70;;;12.34;100.00;97825.03;5048084;28;20503;-83
2021/10/21 04:04:20;;;;;;;7.38;1.10;;;14.00;97.80;;;12.37;100.00;97819.03;5046684;28;20049;-84
2021/10/21 04:06:48;;;;;;;9.27;1.65;;;14.00;97.30;;;12.36;100.00;97817.41;5047954;28;20037;-83
2021/10/21 04:09:15;;;;;;;6.43;1.00;;;14.00;97.40;;;12.34;100.00;97833.22;5047856;28;20084;-83
2021/10/21 04:11:42;;;;;;;8.50;1.20;;;14.00;97.90;;;12.31;100.00;97834.53;5047719;28;20055;-83
2021/10/21 04:14:11;;;;;;;5.60;1.27;;;14.00;97.10;;;12.33;100.00;97812.47;5048060;28;20154;-83
2021/10/21 04:16:38;;;;;;;5.25;0.75;;;14.00;97.00;;;12.36;100.00;97811.13;5047887;28;20045;-83
2021/10/21 04:19:05;;;;;;;5.75;1.00;;;14.00;97.40;;;12.36;100.00;97795.59;5047348;28;20045;-83
2021/10/21 04:21:32;;;;;;;9.55;1.52;;;14.10;96.90;;;12.35;99.06;97804.84;5047696;28;20696;-83
2021/10/21 04:24:00;;;;;;;7.68;1.20;;;14.00;96.50;;;12.31;100.00;97809.19;5047597;28;20071;-83
2021/10/21 04:26:27;;;;;;;6.88;1.10;;;14.10;96.60;;;12.37;98.94;97790.94;5047922;28;20132;-86
2021/10/21 04:28:54;;;;;;;8.25;1.05;;;14.00;95.70;;;12.37;99.81;97801.84;5051170;28;20045;-85
2021/10/21 04:31:23;;;;;;;4.85;0.98;;;14.00;96.70;;;12.36;99.29;97795.59;5066437;28;20426;-86
2021/10/21 04:33:50;;;;;;;7.70;1.02;;;14.00;96.20;;;12.37;97.64;97790.94;5051313;28;20123;-85
2021/10/21 04:36:17;;;;;;;6.75;1.10;;;14.00;94.90;;;12.38;99.27;97806.25;5066453;28;20467;-85
2021/10/21 04:38:44;;;;;;;5.53;1.15;;;14.00;96.10;;;12.40;98.07;97812.25;5050860;28;20071;-86
2021/10/21 04:41:12;;;;;;;7.60;0.88;;;14.00;95.90;;;12.41;98.46;97802.97;5051213;28;20145;-86
2021/10/21 04:43:39;;;;;;;8.32;1.45;;;14.00;96.00;;;12.37;98.61;97808.13;5051192;28;20106;-83
2021/10/21 04:46:06;;;;;;;4.97;1.13;;;14.00;96.00;;;12.38;98.42;97807.06;5051163;28;20162;-83
2021/10/21 04:48:35;;;;;;;5.50;1.10;;;14.00;95.80;;;12.36;98.12;97806.50;5050932;28;20040;-83
2021/10/21 04:51:02;;;;;;;6.95;1.38;;;14.00;95.60;;;12.39;98.92;97810.59;5050976;28;20096;-83
2021/10/21 04:53:29;;;;;;;5.32;0.70;;;14.00;96.20;;;12.36;96.99;97784.69;5051121;28;20512;-83
2021/10/21 04:55:57;;;;;;;4.32;0.70;;;14.00;94.20;;;12.38;96.44;97798.06;5051132;28;20037;-83
2021/10/21 04:58:24;;;;;;;7.75;0.70;;;14.00;94.60;;;12.41;96.80;97790.13;5050724;28;20483;-83
2021/10/21 05:00:51;;;;;;;4.97;0.90;;;13.90;94.70;;;12.42;95.45;97793.72;5050753;28;20136;-83
2021/10/21 05:03:18;;;;;;;6.82;0.70;;;14.00;94.20;;;12.42;96.23;97794.53;5050830;28;20441;-83
2021/10/21 05:05:47;;;;;;;2.55;0.70;;;14.00;94.40;;;12.40;97.79;97807.59;5050585;28;20045;-83
2021/10/21 05:08:14;;;;;;;3.05;0.60;;;14.00;95.40;;;12.35;98.02;97802.09;5050492;28;20041;-83
2021/10/21 05:10:41;;;;;;;3.65;0.80;;;14.00;95.40;;;12.30;99.79;97799.38;5073219;22;20127;-85
2021/10/21 05:13:10;;;;;;;4.20;0.98;;;13.90;96.10;;;12.30;99.62;97788.47;5046437;28;20115;-86
2021/10/21 05:15:38;;;;;;;3.40;0.68;;;13.90;96.10;;;12.24;100.00;97786.75;5048044;28;20444;-86
2021/10/21 05:18:05;;;;;;;1.88;0.50;;;14.00;96.70;;;12.20;100.00;97791.91;5045948;28;20143;-86
2021/10/21 05:20:34;;;;;;;7.40;0.60;;;14.00;97.00;;;12.19;100.00;97797.66;5044173;28;20674;-86
2021/10/21 05:23:03;;;;;;;5.20;0.63;;;14.00;96.80;;;12.16;100.00;97784.53;5049177;28;20055;-85
2021/10/21 05:25:31;;;;;;;1.45;0.50;;;14.00;96.70;;;12.12;100.00;97790.50;5031480;28;20033;-86
2021/10/21 05:27:59;;;;;;;2.28;0.60;;;13.90;96.30;;;12.11;100.00;97777.97;5030353;28;20038;-86
2021/10/21 05:30:26;;;;;;;3.95;0.55;;;13.90;96.90;;;12.16;100.00;97784.53;5038097;28;20072;-86
2021/10/21 05:32:54;;;;;;;1.63;0.50;;;14.00;97.10;;;12.18;100.00;97791.38;5013319;28;20087;-86
2021/10/21 05:35:22;;;;;;;5.82;0.75;;;13.90;96.70;;;12.18;100.00;97796.00;5037798;28;20045;-86
2021/10/21 05:37:49;;;;;;;3.50;0.50;;;13.90;96.90;;;12.17;100.00;97800.63;5038568;28;20498;-86
2021/10/21 05:40:20;;;;;;;2.30;0.50;;;13.90;97.40;;;12.09;100.00;97785.59;5041972;28;20119;-86
2021/10/21 05:42:48;;;;;;;2.80;0.50;;;13.90;97.50;;;12.04;100.00;97768.38;5047841;28;20049;-86
2021/10/21 05:45:15;;;;;;;1.50;0.50;;;13.90;97.90;;;12.00;100.00;97770.81;5047622;28;20033;-86
2021/10/21 05:47:43;;;;;;;1.42;0.60;;;13.90;97.60;;;11.98;100.00;97759.34;5038452;28;20695;-86
2021/10/21 05:50:11;;;;;;;5.28;0.60;;;13.80;98.10;;;11.96;100.00;97764.25;5030052;28;20080;-86
2021/10/21 05:52:39;;;;;;;2.40;0.52;;;13.80;98.20;;;11.95;100.00;97767.22;5013611;28;20045;-86
2021/10/21 05:55:08;;;;;;;3.25;0.73;;;13.80;98.20;;;11.96;100.00;97783.31;5018855;28;20160;-86
2021/10/21 05:57:37;;;;;;;2.35;0.40;;;13.70;98.50;;;11.93;100.00;97775.66;5049218;28;20272;-86
2021/10/21 06:00:08;;;;;;;2.10;0.60;;;13.80;98.80;;;11.91;100.00;97786.00;5049623;28;20124;-86
2021/10/21 06:02:39;;;;;;;1.70;0.65;;;13.80;99.00;;;11.84;100.00;97798.97;5049306;28;20048;-86
2021/10/21 06:05:07;;;;;;;1.80;0.55;;;13.70;99.20;;;11.76;100.00;97785.84;5049563;28;20544;-86
2021/10/21 06:07:35;;;;;;;2.25;0.55;;;13.70;99.50;;;11.74;100.00;97778.72;5049236;28;20518;-85
2021/10/21 06:10:02;;;;;;;3.05;0.60;;;13.70;99.60;;;11.72;100.00;97802.69;5031087;28;20052;-86
2021/10/21 06:12:29;;;;;;;3.60;0.70;;;13.70;99.80;;;11.67;100.00;97804.56;5031264;28;20049;-86
2021/10/21 06:15:01;;;;;;;2.03;0.60;;;13.70;99.90;;;11.64;100.00;97816.78;5049307;28;20495;-86
2021/10/21 06:17:28;;;;;;;3.40;0.80;;;13.60;99.90;;;11.60;100.00;97823.84;5047444;28;20055;-86
2021/10/21 06:19:56;;;;;;;3.85;0.75;;;13.60;99.90;;;11.59;100.00;97830.34;5052970;28;20103;-88
2021/10/21 06:22:23;;;;;;;4.55;0.90;;;13.50;99.90;;;11.57;100.00;97837.16;5069478;28;20047;-91
2021/10/21 06:24:54;;;;;;;3.22;1.23;;;13.50;99.90;;;11.57;100.00;97858.94;5037138;28;20103;-92
2021/10/21 06:27:21;;;;;;;4.28;1.48;;;13.40;99.90;;;11.50;100.00;97886.41;5050895;28;20427;-91
2021/10/21 06:29:49;;;;;;;4.80;2.33;;;13.50;99.90;;;11.47;100.00;97898.59;5031444;28;20045;-90
2021/10/21 06:32:18;;;;;;;6.85;1.60;;;13.40;99.90;;;11.43;100.00;97896.66;5049331;28;20047;-90
2021/10/21 06:34:45;;;;;;;7.88;2.00;;;13.40;99.90;;;11.44;100.00;97941.88;5048999;28;20041;-89
2021/10/21 06:37:13;;;;;;;6.03;2.05;;;13.40;99.90;;;11.48;100.00;97951.16;5041272;28;20060;-90
2021/10/21 06:39:41;;;;;;;9.55;2.00;;;13.40;99.90;;;11.45;100.00;97970.75;5029044;28;20498;-88
2021/10/21 06:42:08;;;;;;;7.60;2.30;;;13.40;99.90;;;11.43;100.00;98017.31;5037550;28;20530;-89
2021/10/21 06:44:36;;;;;;;4.53;1.85;;;13.30;99.90;;;11.42;100.00;98025.72;5028850;28;20452;-89
2021/10/21 06:47:04;;;;;;;6.00;1.90;;;13.40;99.90;;;11.46;100.00;98056.81;5027578;28;20084;-91
2021/10/21 06:49:33;;;;;;;7.40;1.88;;;13.40;99.90;;;11.42;100.00;98091.06;5028893;28;20049;-89
2021/10/21 06:52:00;;;;;;;7.60;1.95;;;13.30;99.90;;;11.34;100.00;98108.66;5028566;28;20068;-91
2021/10/21 06:54:27;;;;;;;4.82;1.10;;;13.20;99.90;;;11.27;100.00;98100.69;5033580;28;20051;-91
2021/10/21 06:56:55;;;;;;;8.30;0.93;;;13.20;99.90;;;11.18;100.00;98191.19;5049334;28;20045;-90
2021/10/21 06:59:22;;;;;;;8.18;1.15;;;13.00;99.90;;;11.12;100.00;98247.44;5048835;28;20045;-90
2021/10/21 07:01:50;;;;;;;3.72;0.80;;;12.90;99.90;;;11.10;100.00;98307.56;5048905;28;20455;-90
2021/10/21 07:04:17;;;;;;;6.70;1.00;;;12.90;99.90;;;11.08;100.00;98328.75;5024040;28;20041;-91
2021/10/21 07:06:46;;;;;;;7.38;1.20;;;12.80;99.90;;;11.01;100.00;98376.25;5036956;28;20548;-91
2021/10/21 07:09:13;;;;;;;5.20;1.20;;;12.80;99.90;;;10.91;100.00;98418.50;5012871;28;20510;-90
2021/10/21 07:11:41;;;;;;;6.18;1.40;;;12.80;99.90;;;10.86;100.00;98451.03;5027646;28;20119;-91
2021/10/21 07:14:08;;;;;;;4.03;0.90;;;12.70;99.90;;;10.86;100.00;98445.59;5021103;28;20041;-90
2021/10/21 07:16:36;;;;;;;6.68;1.00;;;12.70;99.90;;;10.82;100.00;98500.72;5039191;28;20102;-90
2021/10/21 07:19:03;;;;;;;3.72;0.80;;;12.70;99.90;;;10.80;100.00;98528.16;5027415;28;20052;-90
2021/10/21 07:21:30;;;;;;;3.97;1.00;;;12.60;99.90;;;10.80;100.00;98535.50;5013980;28;20110;-90
2021/10/21 07:23:59;;;;;;;3.92;0.70;;;12.50;99.90;;;10.71;100.00;98576.66;5035584;28;20060;-91
2021/10/21 07:26:27;;;;;;;3.05;0.70;;;12.60;99.90;;;10.68;100.00;98598.03;5014073;28;20476;-90
2021/10/21 07:28:54;;;;;;;3.40;1.10;;;12.50;99.90;;;10.62;100.00;98624.28;5024165;28;20045;-90
2021/10/21 07:31:23;;;;;;;4.38;0.70;;;12.40;99.90;;;10.64;100.00;98634.94;5022843;28;20057;-91
2021/10/21 07:33:50;;;;;;;2.42;0.90;;;12.40;99.90;;;10.57;100.00;98660.34;5025467;28;20096;-90
2021/10/21 07:36:19;;;;;;;4.68;1.08;;;12.40;99.90;;;10.53;100.00;98667.31;5025343;28;20760;-89
2021/10/21 07:38:48;;;;;;;3.22;0.90;;;12.50;99.90;;;10.59;100.00;98686.50;5013513;28;20753;-91
2021/10/21 07:41:19;;;;;;;3.13;0.93;;;12.40;99.90;;;10.57;100.00;98698.44;5047784;28;20041;-91
2021/10/21 07:43:46;;;;;;;4.05;1.10;;;12.50;99.90;;;10.59;100.00;98716.44;5024302;28;20053;-90
2021/10/21 07:46:13;;;;;;;7.15;1.20;;;12.50;99.90;;;10.58;100.00;98734.63;5034775;28;20056;-90
2021/10/21 07:48:41;;;;;;;4.50;1.25;;;12.50;99.90;;;10.61;100.00;98755.09;5023832;28;20069;-92
2021/10/21 07:51:08;;;;;;;11.32;1.60;;;12.50;99.90;;;10.61;100.00;98763.28;5020304;28;20063;-90
2021/10/21 07:53:36;;;;;;;7.50;1.60;;;12.50;99.90;;;10.62;100.00;98773.06;5037333;28;20576;-91
2021/10/21 07:56:03;;;;;;;7.70;1.50;;;12.60;99.90;;;10.64;100.00;98804.47;5024763;28;20060;-91
2021/10/21 07:58:32;;;;;;;9.93;1.92;;;12.60;99.90;;;10.58;100.00;98813.50;5014862;28;20052;-91
2021/10/21 08:01:00;;;;;;;10.55;1.45;;;12.60;99.90;;;10.72;100.00;98815.03;5028131;28;20037;-93
2021/10/21 08:03:27;;;;;;;10.35;1.35;;;12.60;99.90;;;10.75;100.00;98832.78;5033192;28;20656;-91
2021/10/21 08:05:56;;;;;;;12.18;1.90;;;12.60;99.90;;;10.77;100.00;98833.38;5028981;28;20493;-89
2021/10/21 08:08:24;;;;;;;8.15;1.50;;;12.60;99.90;;;10.80;100.00;98845.72;5029904;28;20521;-89
2021/10/21 08:10:52;;;;;;;15.93;2.40;;;12.60;99.90;;;10.79;100.00;98871.25;5025736;28;20053;-91
2021/10/21 08:13:20;;;;;;;9.75;2.10;;;12.60;99.90;;;10.80;100.00;98879.19;5016040;28;20045;-90
2021/10/21 08:15:50;;;;;;;10.70;2.28;;;12.60;99.90;;;10.80;100.00;98911.03;5014350;28;20455;-91
2021/10/21 08:18:17;;;;;;;10.98;2.05;;;12.60;99.90;;;10.75;100.00;98898.06;5047754;28;20060;-91
2021/10/21 08:20:45;;;;;;;11.75;2.17;;;12.50;99.90;;;10.76;100.00;98911.47;5042959;28;20497;-90
2021/10/21 08:23:13;;;;;;;14.75;2.78;;;12.60;99.90;;;10.75;100.00;98909.78;5023472;28;20505;-91
2021/10/21 08:25:41;;;;;;;13.15;2.75;;;12.60;99.90;;;10.78;100.00;98908.53;5027753;28;20045;-89
2021/10/21 08:28:09;;;;;;;15.35;2.85;;;12.50;99.90;;;10.71;100.00;98940.41;5017350;28;20080;-90
2021/10/21 08:30:40;;;;;;;12.90;2.50;;;12.50;99.90;;;10.77;100.00;98950.38;5028099;28;20042;-90
2021/10/21 08:33:10;;;;;;;17.33;3.80;;;12.50;99.90;;;10.79;100.00;98963.78;5017351;28;20044;-90
2021/10/21 08:35:37;;;;;;;11.25;2.75;;;12.60;99.90;;;10.78;100.00;98957.50;5022493;28;20563;-91
2021/10/21 08:38:05;;;;;;;12.95;2.50;;;12.60;99.90;;;10.79;100.00;98964.59;5033342;28;20502;-91
2021/10/21 08:40:37;;;;;;;12.43;2.58;;;12.60;99.90;;;10.78;100.00;98982.00;5025414;28;20855;-91
2021/10/21 08:43:07;;;;;;;13.40;2.38;;;12.60;99.90;;;10.83;100.00;98987.56;5023545;28;20710;-90
2021/10/21 08:45:35;;;;;;;13.95;2.10;;;12.50;99.90;;;10.76;100.00;98987.66;5022641;28;20041;-88
2021/10/21 08:48:07;;;;;;;11.70;2.22;;;12.50;99.90;;;10.72;100.00;98997.31;5026480;28;20132;-91
2021/10/21 08:50:39;;;;;;;11.93;2.38;;;12.60;99.90;;;10.74;100.00;99005.28;5039090;28;20042;-90
2021/10/21 08:53:08;;;;;;;9.80;2.08;;;12.60;99.90;;;10.74;100.00;99000.66;5033192;28;20037;-90
2021/10/21 08:55:35;;;;;;;20.10;2.20;;;12.60;99.90;;;10.88;100.00;99005.97;5013928;28;20057;-91
2021/10/21 08:58:04;;;;;;;18.08;2.33;;;12.60;99.90;;;11.00;100.00;99019.66;5022312;28;20056;-92
2021/10/21 09:00:33;;;;;;;15.13;2.55;;;12.70;99.90;;;11.09;100.00;99018.31;5046731;28;20034;-90
2021/10/21 09:03:02;;;;;;;11.85;2.25;;;12.70;99.90;;;11.17;100.00;99023.47;5024829;28;20079;-91
2021/10/21 09:05:32;;;;;;;17.52;3.63;;;12.70;99.90;;;11.17;100.00;99028.91;5026908;28;20131;-93
2021/10/21 09:08:07;;;;;;;12.45;3.20;;;12.80;99.90;;;11.18;100.00;99035.22;5025478;28;20048;-92
2021/10/21 09:10:45;;;;;;;8.50;2.20;;;12.80;99.90;;;11.20;100.00;99047.53;5041462;28;20051;-93
2021/10/21 09:13:31;;;;;;;13.23;2.50;;;12.80;99.90;;;11.23;100.00;99048.97;5032285;28;20424;-91
2021/10/21 09:16:03;;;;;;;12.55;2.20;;;12.90;99.90;;;11.14;100.00;99053.91;5050952;28;20048;-90
2021/10/21 09:18:42;;;;;;;11.75;2.17;;;12.90;99.90;;;11.15;100.00;99061.00;5032850;28;20057;-92
2021/10/21 09:21:29;;;;;;;15.05;2.45;;;12.90;99.90;;;11.24;100.00;99056.09;5033314;28;20044;-90
2021/10/21 09:23:59;;;;;;;16.35;2.70;;;12.90;99.90;;;11.26;100.00;99067.59;5046339;28;20104;-89
2021/10/21 09:26:26;;;;;;;17.02;2.97;;;12.90;99.90;;;11.32;100.00;99072.13;5032255;28;20075;-91
2021/10/21 09:28:55;;;;;;;16.98;2.72;;;12.90;99.50;;;11.38;100.00;99084.84;5038397;28;20048;-89
2021/10/21 09:31:30;;;;;;;12.63;2.83;;;12.90;99.40;;;11.62;100.00;99091.31;5041314;28;20386;-89
2021/10/21 09:34:00;;;;;;;10.43;2.10;;;13.00;99.90;;;11.82;100.00;99098.41;5041321;28;20095;-91
2021/10/21 09:36:28;;;;;;;10.82;2.13;;;13.00;99.90;;;12.01;100.00;99105.53;5030018;28;20045;-90
2021/10/21 09:38:59;;;;;;;9.77;2.33;;;13.10;99.90;;;12.07;100.00;99121.00;5042919;28;20091;-92
2021/10/21 09:41:34;;;;;;;10.57;2.05;;;13.20;99.00;;;11.93;99.58;99122.22;5034826;28;20041;-91
2021/10/21 09:44:25;;;;;;;6.95;1.83;;;13.10;98.40;;;11.86;99.82;99137.78;5029463;28;20046;-92
2021/10/21 09:46:55;;;;;;;7.93;2.10;;;13.10;98.60;;;11.77;100.00;99133.72;5031181;28;20048;-93
2021/10/21 09:49:31;;;;;;;8.25;2.15;;;13.10;98.40;;;11.73;100.00;99145.06;5031966;28;20481;-92
2021/10/21 09:52:01;;;;;;;11.48;2.90;;;13.20;98.80;;;11.64;99.89;99143.69;5032460;28;20045;-91
2021/10/21 09:54:31;;;;;;;10.77;2.50;;;13.20;97.40;;;11.45;100.00;99156.44;5032745;28;20048;-92
2021/10/21 09:57:04;;;;;;;12.68;3.00;;;13.20;98.00;;;11.40;100.00;99158.19;5032583;28;20135;-91
2021/10/21 09:59:34;;;;;;;11.77;2.85;;;13.10;97.80;;;11.33;100.00;99150.91;5050279;28;20051;-90
2021/10/21 10:02:16;;;;;;;10.18;2.42;;;13.10;98.10;;;11.34;100.00;99152.56;5050386;28;20044;-90
2021/10/21 10:04:48;;;;;;;14.02;2.63;;;13.10;98.00;;;11.40;100.00;99156.28;5032404;28;20056;-91
2021/10/21 10:07:16;;;;;;;11.27;2.40;;;13.20;98.20;;;11.49;100.00;99174.00;5050305;28;20539;-91
2021/10/21 10:09:44;;;;;;;12.18;2.47;;;13.10;97.70;;;11.70;100.00;99167.31;5049768;28;20033;-92
2021/10/21 10:12:13;;;;;;;13.38;2.75;;;13.20;98.40;;;11.90;100.00;99177.22;5031839;28;20148;-91
2021/10/21 10:14:42;;;;;;;10.48;2.58;;;13.20;98.40;;;11.90;99.74;99171.78;5032550;28;20056;-91
2021/10/21 10:17:11;;;;;;;13.48;3.03;;;13.20;97.60;;;11.87;99.40;99178.47;5032059;28;20103;-92